sensor_id;sensor_type;location;lat;lon;timestamp;pressure;altitude;pressure_sealevel;temperature;humidity
4858;BME280;58975;51.978;8.472;2023-02-22T00:03:28;100437.00;;;7.22;100.00
4858;BME280;58975;51.978;8.472;2023-02-22T00:08:32;100428.31;;;7.20;100.00
4858;BME280;58975;51.978;8.472;2023-02-22T00:13:29;100423.66;;;7.23;100.00
4858;BME280;58975;51.978;8.472;2023-02-22T00:18:26;100426.22;;;7.25;100.00
4858;BME280;58975;51.978;8.472;2023-02-22T00:23:25;100424.47;;;7.11;100.00
4858;BME280;58975;51.978;8.472;2023-02-22T00:28:24;100427.47;;;7.19;100.00
4858;BME280;58975;51.978;8.472;2023-02-22T00:33:20;100419.31;;;7.22;100.00
4858;BME280;58975;51.978;8.472;2023-02-22T00:38:17;100407.84;;;7.22;100.00
4858;BME280;58975;51.978;8.472;2023-02-22T00:43:14;100403.91;;;7.14;100.00
4858;BME280;58975;51.978;8.472;2023-02-22T00:48:11;100395.34;;;7.11;100.00
4858;BME280;58975;51.978;8.472;2023-02-22T00:53:07;100405.28;;;7.07;100.00
4858;BME280;58975;51.978;8.472;2023-02-22T00:58:06;100400.59;;;6.98;100.00
4858;BME280;58975;51.978;8.472;2023-02-22T01:03:04;100393.25;;;6.89;100.00
4858;BME280;58975;51.978;8.472;2023-02-22T01:08:01;100392.56;;;6.73;100.00
4858;BME280;58975;51.978;8.472;2023-02-22T01:12:59;100379.97;;;6.50;100.00
4858;BME280;58975;51.978;8.472;2023-02-22T01:17:57;100381.09;;;6.32;100.00
4858;BME280;58975;51.978;8.472;2023-02-22T01:22:55;100369.34;;;6.09;100.00
4858;BME280;58975;51.978;8.472;2023-02-22T01:27:52;100359.72;;;5.94;100.00
4858;BME280;58975;51.978;8.472;2023-02-22T01:32:49;100354.50;;;5.78;100.00
4858;BME280;58975;51.978;8.472;2023-02-22T01:37:48;100335.91;;;5.65;100.00
4858;BME280;58975;51.978;8.472;2023-02-22T01:42:53;100331.66;;;5.49;100.00
4858;BME280;58975;51.978;8.472;2023-02-22T01:47:50;100328.53;;;5.42;100.00
4858;BME280;58975;51.978;8.472;2023-02-22T01:52:46;100328.03;;;5.21;100.00
4858;BME280;58975;51.978;8.472;2023-02-22T01:57:45;100320.28;;;5.04;100.00
4858;BME280;58975;51.978;8.472;2023-02-22T02:02:45;100313.16;;;4.91;100.00
4858;BME280;58975;51.978;8.472;2023-02-22T02:07:42;100322.53;;;5.10;100.00
4858;BME280;58975;51.978;8.472;2023-02-22T02:12:44;100325.34;;;5.07;100.00
4858;BME280;58975;51.978;8.472;2023-02-22T02:17:41;100324.38;;;4.94;100.00
4858;BME280;58975;51.978;8.472;2023-02-22T02:33:23;100301.91;;;4.87;100.00
4858;BME280;58975;51.978;8.472;2023-02-22T02:38:31;100297.72;;;4.69;100.00
4858;BME280;58975;51.978;8.472;2023-02-22T02:43:40;100301.97;;;4.71;100.00
4858;BME280;58975;51.978;8.472;2023-02-22T02:48:43;100297.22;;;4.78;100.00
4858;BME280;58975;51.978;8.472;2023-02-22T02:53:45;100302.38;;;4.80;100.00
4858;BME280;58975;51.978;8.472;2023-02-22T02:58:48;100305.41;;;4.88;100.00
4858;BME280;58975;51.978;8.472;2023-02-22T03:03:59;100305.16;;;4.92;100.00
4858;BME280;58975;51.978;8.472;2023-02-22T03:09:10;100297.63;;;4.70;100.00
4858;BME280;58975;51.978;8.472;2023-02-22T03:14:16;100297.31;;;4.61;100.00
4858;BME280;58975;51.978;8.472;2023-02-22T03:19:18;100297.41;;;4.59;100.00
4858;BME280;58975;51.978;8.472;2023-02-22T03:24:21;100299.97;;;4.61;100.00
4858;BME280;58975;51.978;8.472;2023-02-22T03:29:22;100298.03;;;4.49;100.00
4858;BME280;58975;51.978;8.472;2023-02-22T03:34:23;100293.78;;;4.46;100.00
4858;BME280;58975;51.978;8.472;2023-02-22T03:39:22;100287.84;;;4.43;100.00
4858;BME280;58975;51.978;8.472;2023-02-22T03:44:28;100294.38;;;4.36;100.00
4858;BME280;58975;51.978;8.472;2023-02-22T03:49:33;100293.63;;;4.34;100.00
4858;BME280;58975;51.978;8.472;2023-02-22T03:54:31;100293.88;;;4.29;100.00
4858;BME280;58975;51.978;8.472;2023-02-22T03:59:28;100295.91;;;4.24;100.00
4858;BME280;58975;51.978;8.472;2023-02-22T04:04:25;100299.66;;;4.20;100.00
4858;BME280;58975;51.978;8.472;2023-02-22T04:09:22;100297.88;;;4.20;100.00
4858;BME280;58975;51.978;8.472;2023-02-22T04:14:18;100308.22;;;4.23;100.00
4858;BME280;58975;51.978;8.472;2023-02-22T04:19:14;100305.28;;;4.29;100.00
4858;BME280;58975;51.978;8.472;2023-02-22T04:24:11;100302.41;;;4.18;100.00
4858;BME280;58975;51.978;8.472;2023-02-22T04:29:07;100306.81;;;4.18;100.00
4858;BME280;58975;51.978;8.472;2023-02-22T04:34:04;100308.66;;;4.32;100.00
4858;BME280;58975;51.978;8.472;2023-02-22T04:39:01;100303.25;;;4.19;100.00
4858;BME280;58975;51.978;8.472;2023-02-22T04:43:57;100303.75;;;4.10;100.00
4858;BME280;58975;51.978;8.472;2023-02-22T04:48:54;100297.81;;;4.06;100.00
4858;BME280;58975;51.978;8.472;2023-02-22T04:53:50;100302.41;;;4.18;100.00
4858;BME280;58975;51.978;8.472;2023-02-22T04:58:47;100283.28;;;3.99;100.00
4858;BME280;58975;51.978;8.472;2023-02-22T05:03:43;100282.59;;;3.80;100.00
4858;BME280;58975;51.978;8.472;2023-02-22T05:08:39;100269.91;;;3.71;100.00
4858;BME280;58975;51.978;8.472;2023-02-22T05:13:36;100275.00;;;3.74;100.00
4858;BME280;58975;51.978;8.472;2023-02-22T05:18:32;100266.59;;;3.83;100.00
4858;BME280;58975;51.978;8.472;2023-02-22T05:23:28;100271.25;;;3.62;100.00
4858;BME280;58975;51.978;8.472;2023-02-22T05:28:25;100268.00;;;3.57;100.00
4858;BME280;58975;51.978;8.472;2023-02-22T05:33:22;100267.53;;;3.82;100.00
4858;BME280;58975;51.978;8.472;2023-02-22T05:38:18;100271.28;;;3.94;100.00
4858;BME280;58975;51.978;8.472;2023-02-22T05:43:15;100280.47;;;4.02;100.00
4858;BME280;58975;51.978;8.472;2023-02-22T05:48:11;100276.72;;;4.06;100.00
4858;BME280;58975;51.978;8.472;2023-02-22T05:53:08;100272.19;;;4.08;100.00
4858;BME280;58975;51.978;8.472;2023-02-22T05:58:04;100274.50;;;4.14;100.00
4858;BME280;58975;51.978;8.472;2023-02-22T06:03:07;100270.94;;;4.15;100.00
4858;BME280;58975;51.978;8.472;2023-02-22T06:08:06;100282.66;;;4.10;100.00
4858;BME280;58975;51.978;8.472;2023-02-22T06:13:03;100279.09;;;4.11;100.00
4858;BME280;58975;51.978;8.472;2023-02-22T06:18:00;100272.81;;;4.13;100.00
4858;BME280;58975;51.978;8.472;2023-02-22T06:22:57;100286.22;;;4.24;100.00
4858;BME280;58975;51.978;8.472;2023-02-22T06:27:54;100289.47;;;4.29;100.00
4858;BME280;58975;51.978;8.472;2023-02-22T06:32:51;100292.34;;;4.41;100.00
4858;BME280;58975;51.978;8.472;2023-02-22T06:37:47;100290.19;;;4.47;100.00
4858;BME280;58975;51.978;8.472;2023-02-22T06:42:46;100300.47;;;4.52;100.00
4858;BME280;58975;51.978;8.472;2023-02-22T06:47:43;100312.03;;;4.65;100.00
4858;BME280;58975;51.978;8.472;2023-02-22T06:52:42;100309.63;;;4.76;100.00
4858;BME280;58975;51.978;8.472;2023-02-22T06:57:39;100317.09;;;4.84;100.00
4858;BME280;58975;51.978;8.472;2023-02-22T07:02:35;100326.84;;;4.97;100.00
4858;BME280;58975;51.978;8.472;2023-02-22T07:07:32;100333.69;;;5.15;100.00
4858;BME280;58975;51.978;8.472;2023-02-22T07:12:28;100339.16;;;5.27;100.00
4858;BME280;58975;51.978;8.472;2023-02-22T07:17:25;100339.38;;;5.38;100.00
4858;BME280;58975;51.978;8.472;2023-02-22T07:22:21;100345.94;;;5.60;100.00
4858;BME280;58975;51.978;8.472;2023-02-22T07:27:18;100356.28;;;5.78;100.00
4858;BME280;58975;51.978;8.472;2023-02-22T07:32:14;100361.81;;;6.03;100.00
4858;BME280;58975;51.978;8.472;2023-02-22T07:37:11;100363.19;;;6.08;100.00
4858;BME280;58975;51.978;8.472;2023-02-22T07:42:08;100369.06;;;6.13;100.00
4858;BME280;58975;51.978;8.472;2023-02-22T07:47:05;100370.38;;;6.21;100.00
4858;BME280;58975;51.978;8.472;2023-02-22T07:52:01;100367.25;;;6.28;100.00
4858;BME280;58975;51.978;8.472;2023-02-22T07:56:57;100366.56;;;6.39;100.00
4858;BME280;58975;51.978;8.472;2023-02-22T08:01:54;100364.75;;;6.53;100.00
4858;BME280;58975;51.978;8.472;2023-02-22T08:06:50;100363.84;;;6.67;100.00
4858;BME280;58975;51.978;8.472;2023-02-22T08:11:47;100365.28;;;6.85;100.00
4858;BME280;58975;51.978;8.472;2023-02-22T08:16:43;100349.25;;;7.01;100.00
4858;BME280;58975;51.978;8.472;2023-02-22T08:21:40;100341.03;;;7.31;100.00
4858;BME280;58975;51.978;8.472;2023-02-22T08:26:36;100330.25;;;7.59;100.00
4858;BME280;58975;51.978;8.472;2023-02-22T08:31:39;100303.06;;;7.81;100.00
4858;BME280;58975;51.978;8.472;2023-02-22T08:36:40;100279.72;;;7.98;100.00
4858;BME280;58975;51.978;8.472;2023-02-22T08:41:37;100254.97;;;8.11;100.00
4858;BME280;58975;51.978;8.472;2023-02-22T08:46:33;100215.97;;;8.24;100.00
4858;BME280;58975;51.978;8.472;2023-02-22T08:51:34;100179.16;;;8.43;100.00
4858;BME280;58975;51.978;8.472;2023-02-22T08:56:30;100138.06;;;8.48;100.00
4858;BME280;58975;51.978;8.472;2023-02-22T09:01:28;100112.66;;;8.68;100.00
4858;BME280;58975;51.978;8.472;2023-02-22T09:06:28;100089.38;;;8.94;100.00
4858;BME280;58975;51.978;8.472;2023-02-22T09:11:25;100074.38;;;9.26;100.00
4858;BME280;58975;51.978;8.472;2023-02-22T09:16:21;100049.16;;;9.32;100.00
4858;BME280;58975;51.978;8.472;2023-02-22T09:21:18;100039.19;;;9.56;100.00
4858;BME280;58975;51.978;8.472;2023-02-22T09:26:14;100019.69;;;9.67;100.00
4858;BME280;58975;51.978;8.472;2023-02-22T09:31:11;100020.47;;;9.78;100.00
4858;BME280;58975;51.978;8.472;2023-02-22T09:36:08;100009.59;;;10.02;100.00
4858;BME280;58975;51.978;8.472;2023-02-22T09:51:16;99999.47;;;10.58;100.00
4858;BME280;58975;51.978;8.472;2023-02-22T09:56:17;99995.00;;;10.68;100.00
4858;BME280;58975;51.978;8.472;2023-02-22T10:01:33;99993.94;;;10.80;100.00
4858;BME280;58975;51.978;8.472;2023-02-22T10:06:35;99980.34;;;10.83;100.00
4858;BME280;58975;51.978;8.472;2023-02-22T10:11:43;99974.50;;;10.89;100.00
4858;BME280;58975;51.978;8.472;2023-02-22T10:16:55;99978.63;;;11.13;100.00
4858;BME280;58975;51.978;8.472;2023-02-22T10:27:29;99970.94;;;11.38;100.00
4858;BME280;58975;51.978;8.472;2023-02-22T10:32:30;99970.53;;;11.62;100.00
4858;BME280;58975;51.978;8.472;2023-02-22T10:37:32;99973.34;;;11.90;100.00
4858;BME280;58975;51.978;8.472;2023-02-22T10:42:29;99965.47;;;12.07;100.00
4858;BME280;58975;51.978;8.472;2023-02-22T10:47:26;99959.25;;;12.26;100.00
4858;BME280;58975;51.978;8.472;2023-02-22T10:52:26;99960.88;;;12.46;100.00
4858;BME280;58975;51.978;8.472;2023-02-22T10:57:31;99958.44;;;12.53;100.00
4858;BME280;58975;51.978;8.472;2023-02-22T11:02:34;99954.94;;;12.52;100.00
4858;BME280;58975;51.978;8.472;2023-02-22T11:07:33;99955.56;;;12.73;100.00
4858;BME280;58975;51.978;8.472;2023-02-22T11:12:35;99960.00;;;12.82;100.00
4858;BME280;58975;51.978;8.472;2023-02-22T11:17:33;99954.22;;;13.14;100.00
4858;BME280;58975;51.978;8.472;2023-02-22T11:22:37;99937.91;;;13.35;100.00
4858;BME280;58975;51.978;8.472;2023-02-22T11:27:39;99948.91;;;13.50;100.00
4858;BME280;58975;51.978;8.472;2023-02-22T11:32:43;99940.34;;;13.46;100.00
4858;BME280;58975;51.978;8.472;2023-02-22T11:37:39;99930.94;;;13.60;100.00
4858;BME280;58975;51.978;8.472;2023-02-22T11:42:36;99922.91;;;13.60;100.00
4858;BME280;58975;51.978;8.472;2023-02-22T11:47:34;99923.59;;;13.62;100.00
4858;BME280;58975;51.978;8.472;2023-02-22T11:52:36;99920.28;;;13.86;100.00
4858;BME280;58975;51.978;8.472;2023-02-22T11:57:47;99913.53;;;13.99;100.00
4858;BME280;58975;51.978;8.472;2023-02-22T12:13:49;99892.13;;;13.82;100.00
4858;BME280;58975;51.978;8.472;2023-02-22T12:19:13;99883.53;;;13.96;100.00
4858;BME280;58975;51.978;8.472;2023-02-22T12:24:21;99882.97;;;14.10;100.00
4858;BME280;58975;51.978;8.472;2023-02-22T12:29:27;99874.97;;;14.18;100.00
4858;BME280;58975;51.978;8.472;2023-02-22T12:34:54;99870.75;;;14.15;100.00
4858;BME280;58975;51.978;8.472;2023-02-22T12:45:16;99867.28;;;14.49;100.00
4858;BME280;58975;51.978;8.472;2023-02-22T12:50:20;99863.06;;;14.38;100.00
4858;BME280;58975;51.978;8.472;2023-02-22T12:55:35;99866.75;;;14.37;100.00
4858;BME280;58975;51.978;8.472;2023-02-22T13:00:41;99862.38;;;14.36;100.00
4858;BME280;58975;51.978;8.472;2023-02-22T13:05:43;99856.03;;;14.37;100.00
4858;BME280;58975;51.978;8.472;2023-02-22T13:10:55;99851.53;;;14.20;100.00
4858;BME280;58975;51.978;8.472;2023-02-22T13:16:10;99846.88;;;14.22;100.00
4858;BME280;58975;51.978;8.472;2023-02-22T13:21:22;99844.41;;;14.29;100.00
4858;BME280;58975;51.978;8.472;2023-02-22T13:26:31;99846.41;;;14.27;100.00
4858;BME280;58975;51.978;8.472;2023-02-22T13:31:53;99831.16;;;14.27;100.00
4858;BME280;58975;51.978;8.472;2023-02-22T13:37:22;99832.97;;;14.18;100.00
4858;BME280;58975;51.978;8.472;2023-02-22T13:53:23;99830.31;;;14.18;100.00
4858;BME280;58975;51.978;8.472;2023-02-22T13:58:22;99831.47;;;14.24;100.00
4858;BME280;58975;51.978;8.472;2023-02-22T14:13:21;99823.19;;;14.35;100.00
4858;BME280;58975;51.978;8.472;2023-02-22T14:18:17;99819.91;;;14.23;100.00
4858;BME280;58975;51.978;8.472;2023-02-22T14:23:34;99824.25;;;14.16;100.00
4858;BME280;58975;51.978;8.472;2023-02-22T14:28:36;99811.63;;;14.01;100.00
4858;BME280;58975;51.978;8.472;2023-02-22T14:38:53;99806.53;;;13.90;100.00
4858;BME280;58975;51.978;8.472;2023-02-22T14:43:54;99802.31;;;13.79;100.00
4858;BME280;58975;51.978;8.472;2023-02-22T14:48:58;99798.78;;;13.79;100.00
4858;BME280;58975;51.978;8.472;2023-02-22T14:54:48;99802.31;;;13.79;100.00
4858;BME280;58975;51.978;8.472;2023-02-22T14:59:24;99802.03;;;13.90;100.00
4858;BME280;58975;51.978;8.472;2023-02-22T15:04:22;99803.41;;;13.94;100.00
4858;BME280;58975;51.978;8.472;2023-02-22T15:09:23;99801.66;;;13.85;100.00
4858;BME280;58975;51.978;8.472;2023-02-22T15:14:24;99797.75;;;13.71;100.00
4858;BME280;58975;51.978;8.472;2023-02-22T15:19:27;99796.28;;;13.51;100.00
4858;BME280;58975;51.978;8.472;2023-02-22T15:24:30;99794.53;;;13.42;100.00
4858;BME280;58975;51.978;8.472;2023-02-22T15:29:36;99789.81;;;13.36;100.00
4858;BME280;58975;51.978;8.472;2023-02-22T15:34:33;99787.75;;;13.30;100.00
4858;BME280;58975;51.978;8.472;2023-02-22T15:39:31;99785.66;;;13.16;100.00
4858;BME280;58975;51.978;8.472;2023-02-22T15:44:34;99785.97;;;13.13;100.00
4858;BME280;58975;51.978;8.472;2023-02-22T15:49:31;99797.22;;;13.07;100.00
4858;BME280;58975;51.978;8.472;2023-02-22T15:54:41;99785.31;;;12.84;100.00
4858;BME280;58975;51.978;8.472;2023-02-22T15:59:46;99792.03;;;12.70;100.00
4858;BME280;58975;51.978;8.472;2023-02-22T16:04:43;99784.31;;;12.49;100.00
4858;BME280;58975;51.978;8.472;2023-02-22T16:09:53;99778.06;;;12.31;100.00
4858;BME280;58975;51.978;8.472;2023-02-22T16:14:49;99788.81;;;12.21;100.00
4858;BME280;58975;51.978;8.472;2023-02-22T16:19:51;99795.22;;;12.11;100.00
4858;BME280;58975;51.978;8.472;2023-02-22T16:24:47;99791.03;;;11.99;100.00
4858;BME280;58975;51.978;8.472;2023-02-22T16:35:21;99806.47;;;11.39;100.00
4858;BME280;58975;51.978;8.472;2023-02-22T16:40:35;99810.72;;;11.13;100.00
4858;BME280;58975;51.978;8.472;2023-02-22T16:45:33;99806.38;;;10.83;100.00
4858;BME280;58975;51.978;8.472;2023-02-22T16:50:31;99807.75;;;10.68;100.00
4858;BME280;58975;51.978;8.472;2023-02-22T16:55:28;99812.09;;;10.59;100.00
4858;BME280;58975;51.978;8.472;2023-02-22T17:00:24;99815.56;;;10.40;100.00
4858;BME280;58975;51.978;8.472;2023-02-22T17:05:27;99811.94;;;10.11;100.00
4858;BME280;58975;51.978;8.472;2023-02-22T17:10:23;99820.25;;;9.87;100.00
4858;BME280;58975;51.978;8.472;2023-02-22T17:20:22;99827.34;;;9.57;100.00
4858;BME280;58975;51.978;8.472;2023-02-22T17:25:35;99817.63;;;9.46;100.00
4858;BME280;58975;51.978;8.472;2023-02-22T17:30:32;99822.38;;;9.42;100.00
4858;BME280;58975;51.978;8.472;2023-02-22T17:35:33;99825.16;;;9.20;100.00
4858;BME280;58975;51.978;8.472;2023-02-22T17:40:37;99833.28;;;9.08;100.00
4858;BME280;58975;51.978;8.472;2023-02-22T17:45:38;99827.06;;;8.97;100.00
4858;BME280;58975;51.978;8.472;2023-02-22T17:50:39;99828.78;;;8.87;100.00
4858;BME280;58975;51.978;8.472;2023-02-22T17:55:37;99838.22;;;8.80;100.00
4858;BME280;58975;51.978;8.472;2023-02-22T18:00:35;99832.19;;;8.78;100.00
4858;BME280;58975;51.978;8.472;2023-02-22T18:05:32;99832.34;;;8.77;100.00
4858;BME280;58975;51.978;8.472;2023-02-22T18:10:29;99839.22;;;8.68;100.00
4858;BME280;58975;51.978;8.472;2023-02-22T18:15:27;99839.28;;;8.46;100.00
4858;BME280;58975;51.978;8.472;2023-02-22T18:20:25;99836.75;;;8.44;100.00
4858;BME280;58975;51.978;8.472;2023-02-22T18:25:35;99841.47;;;8.41;100.00
4858;BME280;58975;51.978;8.472;2023-02-22T18:30:33;99851.34;;;8.28;100.00
4858;BME280;58975;51.978;8.472;2023-02-22T18:35:32;99853.78;;;8.31;100.00
4858;BME280;58975;51.978;8.472;2023-02-22T18:40:30;99849.44;;;8.30;100.00
4858;BME280;58975;51.978;8.472;2023-02-22T18:45:27;99854.13;;;8.26;100.00
4858;BME280;58975;51.978;8.472;2023-02-22T18:50:25;99846.03;;;8.28;100.00
4858;BME280;58975;51.978;8.472;2023-02-22T18:55:25;99837.25;;;8.38;100.00
4858;BME280;58975;51.978;8.472;2023-02-22T19:00:22;99845.34;;;8.37;100.00
4858;BME280;58975;51.978;8.472;2023-02-22T19:05:25;99850.53;;;8.38;100.00
4858;BME280;58975;51.978;8.472;2023-02-22T19:10:22;99842.16;;;8.43;100.00
4858;BME280;58975;51.978;8.472;2023-02-22T19:15:20;99840.88;;;8.37;100.00
4858;BME280;58975;51.978;8.472;2023-02-22T19:20:19;99848.94;;;8.36;100.00
4858;BME280;58975;51.978;8.472;2023-02-22T19:25:27;99850.47;;;8.27;100.00
4858;BME280;58975;51.978;8.472;2023-02-22T19:30:25;99843.38;;;8.17;100.00
4858;BME280;58975;51.978;8.472;2023-02-22T19:35:23;99840.25;;;8.12;100.00
4858;BME280;58975;51.978;8.472;2023-02-22T19:40:27;99847.84;;;8.05;100.00
4858;BME280;58975;51.978;8.472;2023-02-22T19:45:24;99849.81;;;7.92;100.00
4858;BME280;58975;51.978;8.472;2023-02-22T19:50:21;99857.00;;;7.79;100.00
4858;BME280;58975;51.978;8.472;2023-02-22T19:55:17;99860.00;;;7.74;100.00
4858;BME280;58975;51.978;8.472;2023-02-22T20:00:14;99856.16;;;7.67;100.00
4858;BME280;58975;51.978;8.472;2023-02-22T20:05:19;99857.34;;;7.74;100.00
4858;BME280;58975;51.978;8.472;2023-02-22T20:10:15;99855.44;;;7.76;100.00
4858;BME280;58975;51.978;8.472;2023-02-22T20:15:12;99857.59;;;7.71;100.00
4858;BME280;58975;51.978;8.472;2023-02-22T20:20:09;99865.53;;;7.60;100.00
4858;BME280;58975;51.978;8.472;2023-02-22T20:25:05;99861.53;;;7.54;100.00
4858;BME280;58975;51.978;8.472;2023-02-22T20:30:03;99866.81;;;7.43;100.00
4858;BME280;58975;51.978;8.472;2023-02-22T20:34:59;99872.47;;;7.39;100.00
4858;BME280;58975;51.978;8.472;2023-02-22T20:39:56;99865.16;;;7.19;100.00
4858;BME280;58975;51.978;8.472;2023-02-22T20:44:54;99873.94;;;6.84;100.00
4858;BME280;58975;51.978;8.472;2023-02-22T20:49:56;99866.72;;;6.62;100.00
4858;BME280;58975;51.978;8.472;2023-02-22T20:54:53;99876.00;;;6.68;100.00
4858;BME280;58975;51.978;8.472;2023-02-22T20:59:51;99880.13;;;6.72;100.00
4858;BME280;58975;51.978;8.472;2023-02-22T21:04:47;99882.78;;;6.59;100.00
4858;BME280;58975;51.978;8.472;2023-02-22T21:09:44;99880.34;;;6.69;100.00
4858;BME280;58975;51.978;8.472;2023-02-22T21:14:40;99893.56;;;6.69;100.00
4858;BME280;58975;51.978;8.472;2023-02-22T21:19:39;99900.56;;;6.70;100.00
4858;BME280;58975;51.978;8.472;2023-02-22T21:24:35;99906.22;;;6.53;100.00
4858;BME280;58975;51.978;8.472;2023-02-22T21:29:32;99891.84;;;6.32;100.00
4858;BME280;58975;51.978;8.472;2023-02-22T21:34:30;99900.25;;;6.26;100.00
4858;BME280;58975;51.978;8.472;2023-02-22T21:39:27;99896.44;;;6.30;100.00
4858;BME280;58975;51.978;8.472;2023-02-22T21:44:25;99898.91;;;6.07;100.00
4858;BME280;58975;51.978;8.472;2023-02-22T21:49:21;99907.16;;;5.90;100.00
4858;BME280;58975;51.978;8.472;2023-02-22T21:54:18;99905.09;;;5.81;100.00
4858;BME280;58975;51.978;8.472;2023-02-22T21:59:17;99906.78;;;5.82;100.00
4858;BME280;58975;51.978;8.472;2023-02-22T22:04:21;99905.50;;;5.62;100.00
4858;BME280;58975;51.978;8.472;2023-02-22T22:09:19;99905.81;;;5.58;100.00
4858;BME280;58975;51.978;8.472;2023-02-22T22:14:22;99902.34;;;5.45;100.00
4858;BME280;58975;51.978;8.472;2023-02-22T22:19:19;99909.66;;;5.27;100.00
4858;BME280;58975;51.978;8.472;2023-02-22T22:24:16;99913.72;;;5.33;100.00
4858;BME280;58975;51.978;8.472;2023-02-22T22:29:15;99920.66;;;5.34;100.00
4858;BME280;58975;51.978;8.472;2023-02-22T22:34:13;99920.47;;;5.37;100.00
4858;BME280;58975;51.978;8.472;2023-02-22T22:39:10;99922.91;;;5.40;100.00
4858;BME280;58975;51.978;8.472;2023-02-22T22:44:10;99932.34;;;5.56;100.00
4858;BME280;58975;51.978;8.472;2023-02-22T22:49:09;99939.56;;;5.80;100.00
4858;BME280;58975;51.978;8.472;2023-02-22T22:54:06;99939.66;;;5.78;100.00
4858;BME280;58975;51.978;8.472;2023-02-22T22:59:06;99947.88;;;5.61;100.00
4858;BME280;58975;51.978;8.472;2023-02-22T23:04:03;99945.53;;;5.44;100.00
4858;BME280;58975;51.978;8.472;2023-02-22T23:09:13;99938.88;;;5.51;100.00
4858;BME280;58975;51.978;8.472;2023-02-22T23:14:18;99944.75;;;5.42;100.00
4858;BME280;58975;51.978;8.472;2023-02-22T23:19:15;99946.63;;;5.27;100.00
4858;BME280;58975;51.978;8.472;2023-02-22T23:24:12;99952.56;;;5.31;100.00
4858;BME280;58975;51.978;8.472;2023-02-22T23:29:12;99954.00;;;5.49;100.00
4858;BME280;58975;51.978;8.472;2023-02-22T23:34:08;99949.66;;;5.48;100.00
4858;BME280;58975;51.978;8.472;2023-02-22T23:39:07;99954.72;;;5.51;100.00
4858;BME280;58975;51.978;8.472;2023-02-22T23:44:04;99963.84;;;5.85;100.00
4858;BME280;58975;51.978;8.472;2023-02-22T23:49:03;99975.66;;;6.06;100.00
4858;BME280;58975;51.978;8.472;2023-02-22T23:54:00;99977.16;;;6.23;100.00
4858;BME280;58975;51.978;8.472;2023-02-22T23:58:57;99975.75;;;6.30;100.00
